createdAt,value
2022-08-08T00:01:00.788Z,24.97
2022-08-08T00:03:43.196Z,25.90
2022-08-08T00:06:28.348Z,23.83
2022-08-08T00:09:04.138Z,24.17
2022-08-08T00:12:03.033Z,25.20
2022-08-08T00:14:48.693Z,24.40
2022-08-08T00:17:48.209Z,23.77
2022-08-08T00:20:20.372Z,25.17
2022-08-08T00:22:53.054Z,29.03
2022-08-08T00:25:23.462Z,28.47
2022-08-08T00:27:56.663Z,39.53
2022-08-08T00:30:25.802Z,30.07
2022-08-08T00:32:57.020Z,39.50
2022-08-08T00:35:42.394Z,38.67
2022-08-08T00:38:31.147Z,26.33
2022-08-08T00:41:16.107Z,29.33
2022-08-08T00:44:00.737Z,32.40
2022-08-08T00:46:56.787Z,40.67
2022-08-08T00:49:33.120Z,39.80
2022-08-08T00:52:07.048Z,41.13
2022-08-08T00:54:43.606Z,27.37
2022-08-08T00:57:34.438Z,28.83
2022-08-08T01:00:09.890Z,28.63
2022-08-08T01:03:57.471Z,39.00
2022-08-08T01:06:11.841Z,25.30
2022-08-08T01:09:01.160Z,24.93
2022-08-08T01:12:12.321Z,25.67
2022-08-08T01:14:57.234Z,25.00
2022-08-08T01:17:51.648Z,41.57
2022-08-08T01:20:35.501Z,31.03
2022-08-08T01:23:15.957Z,40.77
2022-08-08T01:26:24.194Z,40.00
2022-08-08T01:29:10.383Z,28.47
2022-08-08T01:32:15.700Z,29.23
2022-08-08T01:34:58.764Z,28.63
2022-08-08T01:37:57.129Z,39.80
2022-08-08T01:40:29.625Z,27.57
2022-08-08T01:43:03.274Z,39.00
2022-08-08T01:45:42.936Z,43.70
2022-08-08T01:48:23.241Z,39.57
2022-08-08T01:51:29.806Z,39.73
2022-08-08T01:55:45.596Z,39.87
2022-08-08T01:57:02.218Z,37.83
2022-08-08T01:59:38.149Z,38.73
2022-08-08T02:02:34.802Z,38.03
2022-08-08T02:05:14.503Z,37.93
2022-08-08T02:07:51.265Z,41.70
2022-08-08T02:10:37.230Z,38.17
2022-08-08T02:13:53.761Z,38.97
2022-08-08T02:16:20.611Z,38.70
2022-08-08T02:18:58.509Z,30.20
2022-08-08T02:21:48.224Z,39.77
2022-08-08T02:24:22.872Z,39.10
2022-08-08T02:26:58.099Z,40.17
2022-08-08T02:29:41.532Z,39.57
2022-08-08T02:32:27.681Z,38.47
2022-08-08T02:35:08.107Z,39.00
2022-08-08T02:37:52.241Z,41.60
2022-08-08T02:40:31.890Z,42.70
2022-08-08T02:44:34.926Z,41.93
2022-08-08T02:46:27.838Z,41.67
2022-08-08T02:49:04.590Z,41.23
2022-08-08T02:51:55.686Z,40.17
2022-08-08T02:54:41.749Z,40.80
2022-08-08T02:57:40.653Z,44.50
2022-08-08T03:00:33.490Z,41.03
2022-08-08T03:03:12.785Z,39.53
2022-08-08T03:05:55.943Z,41.53
2022-08-08T03:08:42.638Z,43.07
2022-08-08T03:11:47.675Z,40.20
2022-08-08T03:16:01.151Z,40.07
2022-08-08T03:17:39.297Z,39.80
2022-08-08T03:20:10.451Z,40.63
2022-08-08T03:22:45.799Z,41.10
2022-08-08T03:25:18.723Z,43.80
2022-08-08T03:27:57.058Z,41.43
2022-08-08T03:30:25.912Z,42.30
2022-08-08T03:33:55.570Z,41.90
2022-08-08T03:36:00.791Z,41.80
2022-08-08T03:38:56.269Z,43.50
2022-08-08T03:42:11.742Z,42.37
2022-08-08T03:44:07.158Z,42.93
2022-08-08T03:46:44.569Z,44.20
2022-08-08T03:49:58.196Z,41.60
2022-08-08T03:52:07.790Z,41.93
2022-08-08T03:55:02.019Z,40.80
2022-08-08T03:58:32.369Z,42.30
2022-08-08T04:00:21.664Z,43.03
2022-08-08T04:02:58.440Z,42.03
2022-08-08T04:05:28.518Z,45.03
2022-08-08T04:07:58.007Z,44.17
2022-08-08T04:10:32.199Z,43.80
2022-08-08T04:13:03.846Z,41.30
2022-08-08T04:15:55.174Z,42.83
2022-08-08T04:18:38.184Z,41.73
2022-08-08T04:21:10.439Z,45.60
2022-08-08T04:24:05.593Z,42.07
2022-08-08T04:26:40.099Z,46.07
2022-08-08T04:29:16.510Z,47.07
2022-08-08T04:31:58.325Z,44.63
2022-08-08T04:34:32.364Z,45.10
2022-08-08T04:37:11.730Z,44.70
2022-08-08T04:40:04.319Z,41.83
2022-08-08T04:42:33.641Z,45.93
2022-08-08T04:45:02.186Z,42.67
2022-08-08T04:47:30.908Z,46.33
2022-08-08T04:50:04.784Z,44.23
2022-08-08T04:52:35.131Z,44.37
2022-08-08T04:55:04.497Z,44.17
2022-08-08T04:57:36.315Z,46.80
2022-08-08T05:00:07.528Z,47.37
2022-08-08T05:02:42.214Z,46.60
2022-08-08T05:05:20.052Z,44.33
2022-08-08T05:07:48.880Z,42.40
2022-08-08T05:10:18.298Z,43.23
2022-08-08T05:12:59.902Z,44.50
2022-08-08T05:16:48.041Z,48.53
2022-08-08T05:18:18.064Z,55.17
2022-08-08T05:20:48.463Z,43.97
2022-08-08T05:23:19.243Z,43.33
2022-08-08T05:25:48.866Z,46.73
2022-08-08T05:28:48.133Z,44.77
2022-08-08T05:31:19.216Z,46.47
2022-08-08T05:33:55.858Z,45.00
2022-08-08T05:36:28.251Z,45.20
2022-08-08T05:38:58.930Z,47.00
2022-08-08T05:41:28.134Z,47.83
2022-08-08T05:44:04.625Z,47.03
2022-08-08T05:46:33.923Z,45.97
2022-08-08T05:49:03.833Z,48.30
2022-08-08T05:51:48.894Z,46.83
2022-08-08T05:54:27.414Z,45.73
2022-08-08T05:56:59.574Z,46.27
2022-08-08T05:59:58.764Z,46.80
2022-08-08T06:02:48.181Z,46.23
2022-08-08T06:05:33.499Z,46.27
2022-08-08T06:08:10.303Z,45.97
2022-08-08T06:10:54.730Z,47.37
2022-08-08T06:13:23.580Z,47.63
2022-08-08T06:15:55.902Z,44.83
2022-08-08T06:18:26.051Z,44.23
2022-08-08T06:20:57.173Z,47.30
2022-08-08T06:23:48.711Z,45.93
2022-08-08T06:26:43.544Z,45.63
2022-08-08T06:29:26.525Z,44.93
2022-08-08T06:32:10.298Z,47.20
2022-08-08T06:34:42.343Z,46.07
2022-08-08T06:37:37.164Z,45.50
2022-08-08T06:40:14.282Z,47.03
2022-08-08T06:42:48.766Z,47.13
2022-08-08T06:45:17.618Z,46.47
2022-08-08T06:47:52.781Z,48.27
2022-08-08T06:50:32.428Z,45.77
2022-08-08T06:53:13.950Z,47.70
2022-08-08T06:55:47.098Z,47.90
2022-08-08T06:58:15.821Z,47.97
2022-08-08T07:00:48.184Z,49.00
2022-08-08T07:03:51.955Z,49.00
2022-08-08T07:06:11.846Z,48.63
2022-08-08T07:08:40.925Z,50.63
2022-08-08T07:11:21.996Z,51.10
2022-08-08T07:14:01.132Z,49.73
2022-08-08T07:16:33.617Z,48.57
2022-08-08T07:19:11.577Z,48.87
2022-08-08T07:21:44.538Z,48.80
2022-08-08T07:24:22.998Z,48.47
2022-08-08T07:26:54.635Z,49.40
2022-08-08T07:30:00.511Z,49.17
2022-08-08T07:32:16.911Z,50.17
2022-08-08T07:34:48.548Z,50.10
2022-08-08T07:37:49.738Z,49.00
2022-08-08T07:40:29.125Z,49.70
2022-08-08T07:42:59.516Z,50.37
2022-08-08T07:45:34.666Z,50.67
2022-08-08T07:48:16.056Z,53.10
2022-08-08T07:50:46.635Z,52.50
2022-08-08T07:53:52.231Z,51.67
2022-08-08T07:56:09.512Z,50.10
2022-08-08T07:58:40.317Z,52.90
2022-08-08T08:01:11.111Z,53.10
2022-08-08T08:03:44.089Z,51.30
2022-08-08T08:06:14.682Z,51.70
2022-08-08T08:08:52.231Z,51.10
2022-08-08T08:11:23.220Z,47.93
2022-08-08T08:14:07.489Z,49.80
2022-08-08T08:16:39.120Z,48.50
2022-08-08T08:19:10.186Z,51.67
2022-08-08T08:21:52.358Z,56.20
2022-08-08T08:24:30.587Z,52.77
2022-08-08T08:27:02.998Z,48.63
2022-08-08T08:29:32.433Z,55.00
2022-08-08T08:32:05.778Z,48.77
2022-08-08T08:34:35.052Z,49.77
2022-08-08T08:37:08.035Z,51.83
2022-08-08T08:39:39.130Z,53.60
2022-08-08T08:42:31.891Z,48.40
2022-08-08T08:45:21.640Z,47.63
2022-08-08T08:47:53.082Z,53.37
2022-08-08T08:50:33.337Z,49.17
2022-08-08T08:53:27.712Z,49.37
2022-08-08T08:55:55.842Z,52.67
2022-08-08T08:58:32.583Z,50.30
2022-08-08T09:01:08.988Z,50.10
2022-08-08T09:03:47.169Z,51.20
2022-08-08T09:06:28.654Z,54.30
2022-08-08T09:09:07.300Z,49.57
2022-08-08T09:11:47.068Z,51.13
2022-08-08T09:14:23.997Z,49.53
2022-08-08T09:16:55.545Z,53.93
2022-08-08T09:21:57.059Z,50.20
2022-08-08T09:22:13.247Z,52.10
2022-08-08T09:24:56.964Z,48.83
2022-08-08T09:27:57.575Z,53.73
2022-08-08T09:30:17.870Z,49.83
2022-08-08T09:33:55.392Z,50.17
2022-08-08T09:35:50.289Z,50.93
2022-08-08T09:38:28.861Z,51.27
2022-08-08T09:41:03.190Z,55.03
2022-08-08T09:43:40.714Z,50.77
2022-08-08T09:46:25.610Z,50.10
2022-08-08T09:49:18.423Z,49.83
2022-08-08T09:52:06.895Z,48.20
2022-08-08T09:54:42.362Z,54.57
2022-08-08T09:57:35.223Z,54.67
2022-08-08T10:00:34.264Z,48.17
2022-08-08T10:02:55.726Z,52.63
2022-08-08T10:05:26.113Z,53.37
2022-08-08T10:08:00.603Z,54.13
2022-08-08T10:10:30.141Z,53.13
2022-08-08T10:13:13.827Z,54.90
2022-08-08T10:15:59.224Z,50.27
2022-08-08T10:18:29.800Z,53.20
2022-08-08T10:21:07.369Z,48.73
2022-08-08T10:23:47.082Z,54.60
2022-08-08T10:26:30.108Z,49.90
2022-08-08T10:29:05.912Z,50.53
2022-08-08T10:31:52.106Z,50.50
2022-08-08T10:34:23.990Z,50.43
2022-08-08T10:36:52.772Z,51.43
2022-08-08T10:39:23.313Z,52.17
2022-08-08T10:42:15.513Z,52.00
2022-08-08T10:44:49.438Z,51.13
2022-08-08T10:47:21.010Z,50.90
2022-08-08T10:50:01.251Z,52.97
2022-08-08T10:52:31.745Z,51.00
2022-08-08T10:55:05.093Z,53.70
2022-08-08T10:57:45.221Z,52.63
2022-08-08T11:00:25.645Z,52.43
2022-08-08T11:02:54.377Z,52.90
2022-08-08T11:05:22.949Z,51.80
2022-08-08T11:08:38.930Z,51.33
2022-08-08T11:10:41.328Z,51.50
2022-08-08T11:13:29.157Z,52.30
2022-08-08T11:16:01.345Z,57.70
2022-08-08T11:18:36.378Z,52.97
2022-08-08T11:21:10.075Z,52.07
2022-08-08T11:24:03.004Z,53.00
2022-08-08T11:26:32.168Z,54.03
2022-08-08T11:29:03.096Z,52.70
2022-08-08T11:31:46.918Z,52.97
2022-08-08T11:34:23.414Z,53.23
2022-08-08T11:37:00.235Z,60.07
2022-08-08T11:39:36.877Z,53.50
2022-08-08T11:44:09.507Z,29.33
2022-08-08T11:46:38.335Z,52.70
2022-08-08T11:49:11.372Z,55.57
2022-08-08T11:51:49.958Z,61.63
2022-08-08T11:54:31.487Z,59.00
2022-08-08T11:57:14.080Z,57.83
2022-08-08T12:00:00.423Z,55.00
2022-08-08T12:02:41.853Z,55.83
2022-08-08T12:05:13.956Z,52.17
2022-08-08T12:07:46.755Z,54.40
2022-08-08T12:10:18.775Z,53.93
2022-08-08T12:12:48.807Z,58.80
2022-08-08T12:15:29.213Z,58.20
2022-08-08T12:17:57.526Z,62.27
2022-08-08T12:20:38.439Z,57.20
2022-08-08T12:23:07.147Z,57.10
2022-08-08T12:25:44.959Z,56.77
2022-08-08T12:28:23.373Z,58.20
2022-08-08T12:30:53.040Z,58.43
2022-08-08T12:33:23.736Z,58.60
2022-08-08T12:36:11.836Z,57.60
2022-08-08T12:38:50.124Z,58.47
2022-08-08T12:41:34.981Z,57.60
2022-08-08T12:44:30.328Z,60.37
2022-08-08T12:47:02.817Z,57.03
2022-08-08T12:49:43.442Z,57.43
2022-08-08T12:52:28.762Z,57.70
2022-08-08T12:55:03.609Z,58.20
2022-08-08T12:57:38.311Z,58.87
2022-08-08T13:00:34.033Z,58.87
2022-08-08T13:03:08.606Z,59.77
2022-08-08T13:06:05.017Z,55.57
2022-08-08T13:08:36.308Z,59.20
2022-08-08T13:11:08.608Z,59.83
2022-08-08T13:13:39.036Z,59.80
2022-08-08T13:16:25.598Z,60.67
2022-08-08T13:19:05.527Z,61.63
2022-08-08T13:21:53.466Z,59.97
2022-08-08T13:24:42.248Z,60.93
2022-08-08T13:27:15.268Z,59.10
2022-08-08T13:29:50.764Z,56.83
2022-08-08T13:32:20.858Z,56.53
2022-08-08T13:34:54.599Z,56.10
2022-08-08T13:37:51.862Z,57.40
2022-08-08T13:40:12.319Z,61.10
2022-08-08T13:42:46.697Z,59.57
2022-08-08T13:45:15.971Z,58.47
2022-08-08T13:47:58.160Z,58.50
2022-08-08T13:50:38.586Z,58.63
2022-08-08T13:53:24.271Z,56.03
2022-08-08T13:55:57.865Z,58.57
2022-08-08T13:58:29.007Z,56.03
2022-08-08T14:00:57.503Z,55.63
2022-08-08T14:03:53.759Z,52.73
2022-08-08T14:06:32.269Z,56.70
2022-08-08T14:09:25.016Z,53.27
2022-08-08T14:11:50.977Z,59.70
2022-08-08T14:14:21.043Z,51.37
2022-08-08T14:16:55.448Z,54.43
2022-08-08T14:19:55.643Z,55.13
2022-08-08T14:22:24.295Z,51.97
2022-08-08T14:24:54.145Z,48.33
2022-08-08T14:27:27.042Z,29.73
2022-08-08T14:29:58.302Z,27.93
2022-08-08T14:32:26.644Z,30.03
2022-08-08T14:34:59.198Z,28.53
2022-08-08T14:37:43.276Z,30.17
2022-08-08T14:40:27.261Z,27.13
2022-08-08T14:42:59.719Z,20.37
2022-08-08T14:45:46.657Z,6.83
2022-08-08T14:48:34.929Z,6.13
2022-08-08T14:51:07.921Z,6.00
2022-08-08T14:53:54.920Z,5.67
2022-08-08T14:56:24.751Z,6.30
2022-08-08T14:58:54.248Z,27.23
2022-08-08T15:01:37.405Z,27.43
2022-08-08T15:04:10.328Z,24.57
2022-08-08T15:06:39.118Z,23.93
2022-08-08T15:09:12.011Z,7.63
2022-08-08T15:11:46.246Z,7.13
2022-08-08T15:14:26.590Z,6.97
2022-08-08T15:16:56.916Z,21.03
2022-08-08T15:19:28.175Z,8.67
2022-08-08T15:21:58.006Z,28.57
2022-08-08T15:24:31.240Z,28.77
2022-08-08T15:27:12.238Z,28.33
2022-08-08T15:29:48.652Z,27.63
2022-08-08T15:32:19.322Z,27.07
2022-08-08T15:34:48.410Z,35.87
2022-08-08T15:37:17.341Z,26.53
2022-08-08T15:39:49.120Z,27.10
2022-08-08T15:42:41.514Z,26.93
2022-08-08T15:45:10.762Z,30.07
2022-08-08T15:47:39.029Z,28.47
2022-08-08T15:50:16.858Z,28.73
2022-08-08T15:52:48.608Z,27.57
2022-08-08T15:55:18.793Z,29.67
2022-08-08T15:57:49.109Z,28.10
2022-08-08T16:00:27.618Z,32.37
2022-08-08T16:02:57.925Z,26.77
2022-08-08T16:05:36.031Z,26.27
2022-08-08T16:08:19.928Z,25.47
2022-08-08T16:13:05.152Z,25.93
2022-08-08T16:13:43.692Z,29.03
2022-08-08T16:16:17.481Z,24.20
2022-08-08T16:18:53.246Z,19.20
2022-08-08T16:21:27.628Z,18.40
2022-08-08T16:23:56.597Z,23.53
2022-08-08T16:26:34.216Z,18.43
2022-08-08T16:29:07.925Z,23.23
2022-08-08T16:31:37.017Z,20.20
2022-08-08T16:34:05.652Z,19.27
2022-08-08T16:36:34.427Z,6.73
2022-08-08T16:39:09.793Z,7.67
2022-08-08T16:41:50.998Z,20.37
2022-08-08T16:44:27.986Z,8.50
2022-08-08T16:47:16.433Z,6.17
2022-08-08T16:49:44.878Z,6.27
2022-08-08T16:55:02.364Z,5.63
2022-08-08T16:55:42.943Z,6.67
2022-08-08T16:58:15.592Z,6.03
2022-08-08T17:00:48.833Z,6.93
2022-08-08T17:03:18.093Z,6.33
2022-08-08T17:05:53.479Z,6.37
2022-08-08T17:08:23.558Z,8.37
2022-08-08T17:10:59.002Z,26.57
2022-08-08T17:13:40.914Z,18.70
2022-08-08T17:16:24.266Z,7.77
2022-08-08T17:18:53.011Z,6.33
2022-08-08T17:21:21.667Z,5.87
2022-08-08T17:24:00.556Z,18.60
2022-08-08T17:26:30.576Z,7.90
2022-08-08T17:29:04.422Z,19.13
2022-08-08T17:31:45.378Z,6.97
2022-08-08T17:34:49.419Z,6.90
2022-08-08T17:37:11.205Z,6.37
2022-08-08T17:40:02.924Z,5.90
2022-08-08T17:42:29.824Z,6.57
2022-08-08T17:44:59.464Z,9.33
2022-08-08T17:47:40.613Z,6.13
2022-08-08T17:50:10.442Z,6.27
2022-08-08T17:52:43.108Z,6.30
2022-08-08T17:56:03.388Z,5.80
2022-08-08T17:58:01.807Z,5.90
2022-08-08T18:00:32.183Z,6.27
2022-08-08T18:03:08.707Z,6.43
2022-08-08T18:05:48.530Z,6.03
2022-08-08T18:08:25.088Z,6.30
2022-08-08T18:11:06.327Z,5.93
2022-08-08T18:13:35.040Z,5.60
2022-08-08T18:16:16.690Z,5.70
2022-08-08T18:18:52.999Z,5.93
2022-08-08T18:21:24.951Z,6.10
2022-08-08T18:24:03.893Z,6.17
2022-08-08T18:26:33.506Z,5.70
2022-08-08T18:29:01.908Z,6.23
2022-08-08T18:31:31.615Z,5.97
2022-08-08T18:34:25.332Z,5.93
2022-08-08T18:36:48.280Z,5.93
2022-08-08T18:39:28.188Z,5.67
2022-08-08T18:42:03.277Z,5.87
2022-08-08T18:44:33.121Z,6.07
2022-08-08T18:47:05.052Z,6.07
2022-08-08T18:49:41.019Z,6.00
2022-08-08T18:52:23.337Z,5.67
2022-08-08T18:54:59.802Z,5.90
2022-08-08T18:57:41.650Z,5.83
2022-08-08T19:00:16.761Z,5.97
2022-08-08T19:02:57.038Z,6.43
2022-08-08T19:05:31.780Z,6.50
2022-08-08T19:08:03.064Z,6.07
2022-08-08T19:10:32.582Z,6.63
2022-08-08T19:13:03.524Z,5.77
2022-08-08T19:15:33.974Z,6.27
2022-08-08T19:18:31.068Z,5.47
2022-08-08T19:20:54.645Z,6.17
2022-08-08T19:23:23.026Z,5.97
2022-08-08T19:26:20.047Z,7.70
2022-08-08T19:28:42.317Z,5.87
2022-08-08T19:31:16.977Z,6.03
2022-08-08T19:34:04.955Z,7.37
2022-08-08T19:36:36.079Z,6.10
2022-08-08T19:39:06.873Z,6.13
2022-08-08T19:41:37.796Z,5.77
2022-08-08T19:44:12.897Z,5.77
2022-08-08T19:46:54.922Z,6.27
2022-08-08T19:49:26.693Z,5.93
2022-08-08T19:51:55.015Z,5.80
2022-08-08T19:54:23.750Z,5.80
2022-08-08T19:56:52.383Z,6.37
2022-08-08T19:59:22.425Z,5.97
2022-08-08T20:02:01.843Z,9.07
2022-08-08T20:04:33.909Z,5.67
2022-08-08T20:07:03.615Z,6.10
2022-08-08T20:09:45.167Z,5.97
2022-08-08T20:12:32.571Z,5.70
2022-08-08T20:15:16.387Z,6.07
2022-08-08T20:17:46.489Z,5.70
2022-08-08T20:20:19.485Z,6.00
2022-08-08T20:22:53.840Z,6.10
2022-08-08T20:25:22.903Z,5.97
2022-08-08T20:27:55.277Z,9.27
2022-08-08T20:30:52.961Z,6.80
2022-08-08T20:35:58.749Z,6.70
2022-08-08T20:38:33.286Z,5.60
2022-08-08T20:41:05.394Z,5.40
2022-08-08T20:43:49.513Z,5.27
2022-08-08T20:46:20.280Z,4.90
2022-08-08T20:48:50.966Z,5.07
2022-08-08T20:51:21.187Z,4.87
2022-08-08T20:53:58.934Z,4.93
2022-08-08T20:56:34.932Z,5.00
2022-08-08T20:59:05.744Z,5.83
2022-08-08T21:02:05.660Z,5.30
2022-08-08T21:04:23.386Z,4.43
2022-08-08T21:06:54.063Z,5.23
2022-08-08T21:09:22.678Z,5.10
2022-08-08T21:12:02.799Z,5.77
2022-08-08T21:14:34.507Z,5.03
2022-08-08T21:17:08.002Z,5.00
2022-08-08T21:19:45.434Z,5.00
2022-08-08T21:22:16.226Z,5.17
2022-08-08T21:24:53.568Z,4.77
2022-08-08T21:28:05.913Z,4.93
2022-08-08T21:30:19.381Z,5.03
2022-08-08T21:32:51.105Z,5.17
2022-08-08T21:36:19.010Z,6.63
2022-08-08T21:38:17.215Z,7.13
2022-08-08T21:40:55.488Z,6.60
2022-08-08T21:43:25.037Z,6.70
2022-08-08T21:48:06.845Z,6.47
2022-08-08T21:48:49.496Z,6.60
2022-08-08T21:54:17.925Z,5.47
2022-08-08T21:54:34.361Z,5.70
2022-08-08T21:56:59.612Z,5.70
2022-08-08T22:00:01.904Z,5.93
2022-08-08T22:02:19.633Z,5.60
2022-08-08T22:04:52.045Z,5.70
2022-08-08T22:07:20.327Z,6.43
2022-08-08T22:09:56.172Z,5.97
2022-08-08T22:12:24.485Z,6.80
2022-08-08T22:14:53.837Z,6.63
2022-08-08T22:17:22.166Z,5.63
2022-08-08T22:20:10.442Z,6.80
2022-08-08T22:22:39.608Z,6.63
2022-08-08T22:25:19.871Z,6.87
2022-08-08T22:28:02.567Z,6.83
2022-08-08T22:30:33.602Z,7.00
2022-08-08T22:33:02.152Z,7.00
2022-08-08T22:36:05.359Z,7.07
2022-08-08T22:38:21.083Z,7.20
2022-08-08T22:40:51.767Z,7.47
2022-08-08T22:43:20.078Z,7.20
2022-08-08T22:45:52.955Z,7.33
2022-08-08T22:48:21.777Z,7.27
2022-08-08T22:50:51.047Z,7.00
2022-08-08T22:54:28.029Z,6.87
2022-08-08T22:56:09.310Z,6.97
2022-08-08T22:58:40.924Z,7.50
2022-08-08T23:01:26.702Z,7.20
2022-08-08T23:04:04.166Z,6.80
2022-08-08T23:06:33.526Z,7.13
2022-08-08T23:09:02.011Z,9.17
2022-08-08T23:12:28.502Z,8.47
2022-08-08T23:14:28.021Z,7.63
2022-08-08T23:16:59.372Z,7.00
2022-08-08T23:19:31.108Z,7.73
2022-08-08T23:22:01.319Z,6.93
2022-08-08T23:24:36.916Z,6.97
2022-08-08T23:27:11.543Z,7.03
2022-08-08T23:29:59.769Z,8.03
2022-08-08T23:32:28.065Z,7.73
2022-08-08T23:34:58.871Z,7.00
2022-08-08T23:38:02.222Z,7.10
2022-08-08T23:40:16.428Z,7.33
2022-08-08T23:42:51.835Z,7.47
2022-08-08T23:48:59.782Z,8.30
2022-08-08T23:49:02.870Z,9.33
2022-08-08T23:50:57.275Z,18.93
2022-08-08T23:53:55.845Z,24.17
2022-08-08T23:56:14.238Z,24.73
2022-08-08T23:59:02.443Z,23.90
